createdAt,value
2022-12-26T00:00:55.182Z,13.3
2022-12-26T00:03:58.206Z,14.8
2022-12-26T00:06:45.487Z,13.7
2022-12-26T00:09:32.768Z,12.7
2022-12-26T00:12:20.215Z,13.9
2022-12-26T00:15:07.564Z,14.6
2022-12-26T00:17:55.047Z,13
2022-12-26T00:20:42.779Z,13.2
2022-12-26T00:23:30.516Z,14.7
2022-12-26T00:26:18.214Z,14.2
2022-12-26T00:29:07.494Z,12.7
2022-12-26T00:31:55.001Z,13.6
2022-12-26T00:34:42.659Z,14.5
2022-12-26T00:37:30.525Z,13.1
2022-12-26T00:40:17.756Z,13.3
2022-12-26T00:43:05.008Z,14.8
2022-12-26T00:45:52.223Z,13.7
2022-12-26T00:48:39.574Z,12.8
2022-12-26T00:51:27.096Z,14.2
2022-12-26T00:54:14.428Z,14.3
2022-12-26T00:57:01.741Z,13
2022-12-26T00:59:49.211Z,13.5
2022-12-26T01:02:36.682Z,15
2022-12-26T01:05:24.256Z,13.8
2022-12-26T01:08:22.722Z,13.2
2022-12-26T01:11:11.727Z,14.9
2022-12-26T01:14:24.494Z,14.1
2022-12-26T01:17:11.900Z,12.9
2022-12-26T01:19:59.190Z,14.1
2022-12-26T01:22:47.614Z,14.9
2022-12-26T01:25:34.868Z,13.4
2022-12-26T01:28:23.652Z,13.7
2022-12-26T01:31:11.007Z,14.8
2022-12-26T01:33:58.452Z,13.4
2022-12-26T01:36:45.689Z,13.9
2022-12-26T01:39:33.084Z,15
2022-12-26T01:42:20.465Z,13.6
2022-12-26T01:45:09.668Z,13.5
2022-12-26T01:48:10.873Z,15.3
2022-12-26T01:51:04.795Z,14
2022-12-26T01:53:52.477Z,13.2
2022-12-26T01:56:44.406Z,14.8
2022-12-26T01:59:33.264Z,14.6
2022-12-26T02:02:25.160Z,12.9
2022-12-26T02:05:14.805Z,13.9
2022-12-26T02:08:34.275Z,14.8
2022-12-26T02:11:23.630Z,13.5
2022-12-26T02:14:17.594Z,14
2022-12-26T02:17:05.472Z,15.2
2022-12-26T02:19:53.141Z,14.3
2022-12-26T02:22:54.760Z,13.4
2022-12-26T02:26:06.673Z,15.1
2022-12-26T02:29:24.797Z,13.9
2022-12-26T02:32:39.938Z,13.2
2022-12-26T02:35:59.895Z,15.3
2022-12-26T02:39:44.899Z,14.1
2022-12-26T02:42:48.245Z,13.7
2022-12-26T02:45:44.237Z,15.3
2022-12-26T02:49:12.630Z,14.1
2022-12-26T02:52:04.588Z,13.4
2022-12-26T02:55:34.745Z,15.5
2022-12-26T02:59:00.929Z,14.1
2022-12-26T03:02:27.728Z,14
2022-12-26T03:05:53.732Z,15.6
2022-12-26T03:09:17.177Z,14
2022-12-26T03:12:40.724Z,13.7
2022-12-26T03:16:04.539Z,15.5
2022-12-26T03:19:28.390Z,13.9
2022-12-26T03:22:18.181Z,13.6
2022-12-26T03:25:15.165Z,15.3
2022-12-26T03:28:40.010Z,14.1
2022-12-26T03:31:29.048Z,13.8
2022-12-26T03:34:16.341Z,15.4
2022-12-26T03:37:03.885Z,14.5
2022-12-26T03:40:10.068Z,13.2
2022-12-26T03:43:41.160Z,15.4
2022-12-26T03:47:17.512Z,14.9
2022-12-26T03:50:41.039Z,13.5
2022-12-26T03:54:05.768Z,15.5
2022-12-26T03:57:29.298Z,14.6
2022-12-26T04:00:56.730Z,13.6
2022-12-26T04:04:19.048Z,15.7
2022-12-26T04:07:55.836Z,14.7
2022-12-26T04:11:23.284Z,13.5
2022-12-26T04:14:43.178Z,15.7
2022-12-26T04:18:08.496Z,14.4
2022-12-26T04:21:32.591Z,14
2022-12-26T04:24:59.324Z,15.6
2022-12-26T04:28:24.718Z,14.1
2022-12-26T04:31:44.366Z,14
2022-12-26T04:35:11.731Z,15.7
2022-12-26T04:38:35.973Z,14
2022-12-26T04:41:59.426Z,13.9
2022-12-26T04:45:19.821Z,15.3
2022-12-26T04:48:07.832Z,14.4
2022-12-26T04:51:28.399Z,13.5
2022-12-26T04:54:15.816Z,15.5
2022-12-26T04:57:03.656Z,14.8
2022-12-26T04:59:52.220Z,13.5
2022-12-26T05:02:39.808Z,14.6
2022-12-26T05:05:59.404Z,15.9
2022-12-26T05:09:18.514Z,14.3
2022-12-26T05:12:20.857Z,14.1
2022-12-26T05:15:08.115Z,15.6
2022-12-26T05:17:55.841Z,14.9
2022-12-26T05:21:14.635Z,13.6
2022-12-26T05:24:35.607Z,15.1
2022-12-26T05:27:57.776Z,14.2
2022-12-26T05:31:17.556Z,14.5
2022-12-26T05:34:05.071Z,16
2022-12-26T05:36:52.796Z,15
2022-12-26T05:39:43.859Z,13.8
2022-12-26T05:42:31.257Z,15.1
2022-12-26T05:45:18.698Z,16
2022-12-26T05:48:06.084Z,14.5
2022-12-26T05:50:53.383Z,14.2
2022-12-26T05:53:44.386Z,15.5
2022-12-26T05:56:32.951Z,16
2022-12-26T05:59:20.259Z,14.5
2022-12-26T06:02:07.759Z,14.5
2022-12-26T06:04:55.150Z,15.6
2022-12-26T06:07:43.774Z,14.8
2022-12-26T06:10:31.254Z,14.3
2022-12-26T06:13:18.571Z,16.2
2022-12-26T06:16:06.015Z,15.1
2022-12-26T06:18:57.054Z,13.8
2022-12-26T06:21:44.459Z,14.9
2022-12-26T06:24:31.828Z,16.5
2022-12-26T06:27:19.107Z,15.1
2022-12-26T06:30:06.366Z,14.1
2022-12-26T06:32:54.563Z,15.4
2022-12-26T06:35:41.931Z,16
2022-12-26T06:38:30.088Z,15
2022-12-26T06:41:17.606Z,14.1
2022-12-26T06:44:11.682Z,15.6
2022-12-26T06:47:02.014Z,16.1
2022-12-26T06:49:49.406Z,14.5
2022-12-26T06:52:36.816Z,14.6
2022-12-26T06:55:24.074Z,16.2
2022-12-26T06:58:11.683Z,15.2
2022-12-26T07:00:59.188Z,14.1
2022-12-26T07:03:51.945Z,15
2022-12-26T07:06:40.459Z,16.5
2022-12-26T07:09:33.375Z,15
2022-12-26T07:12:21.232Z,14.6
2022-12-26T07:15:08.682Z,16.1
2022-12-26T07:17:56.412Z,15.7
2022-12-26T07:20:43.969Z,14.4
2022-12-26T07:23:31.450Z,15
2022-12-26T07:26:18.915Z,16.7
2022-12-26T07:29:06.647Z,15.4
2022-12-26T07:31:56.237Z,14.2
2022-12-26T07:34:43.972Z,15.3
2022-12-26T07:37:31.496Z,16.4
2022-12-26T07:40:18.836Z,14.9
2022-12-26T07:43:06.263Z,14.4
2022-12-26T07:45:53.653Z,16.1
2022-12-26T07:48:43.731Z,15.4
2022-12-26T07:51:31.636Z,14.2
2022-12-26T07:54:19.005Z,15.4
2022-12-26T07:57:46.262Z,16.2
2022-12-26T08:00:35.311Z,14.9
2022-12-26T08:03:22.809Z,14.1
2022-12-26T08:06:10.232Z,15.8
2022-12-26T08:08:57.813Z,16
2022-12-26T08:11:45.136Z,15.3
2022-12-26T08:14:32.502Z,14.2
2022-12-26T08:17:21.407Z,15.4
2022-12-26T08:20:08.757Z,16.5
2022-12-26T08:25:43.695Z,14.4
2022-12-26T08:28:31.392Z,16
2022-12-26T08:31:18.788Z,16.5
2022-12-26T08:34:06.918Z,15.1
2022-12-26T08:36:54.486Z,15.7
2022-12-26T08:39:42.000Z,17
2022-12-26T08:42:30.024Z,16.2
2022-12-26T08:45:17.350Z,15
2022-12-26T08:48:04.795Z,15.6
2022-12-26T08:50:52.216Z,16.8
2022-12-26T08:53:42.674Z,15.6
2022-12-26T08:56:31.722Z,15.5
2022-12-26T08:59:19.133Z,17
2022-12-26T09:02:06.974Z,15.8
2022-12-26T09:04:56.020Z,14.6
2022-12-26T09:07:43.439Z,15.9
2022-12-26T09:10:30.960Z,16.5
2022-12-26T09:13:18.332Z,15.7
2022-12-26T09:16:06.663Z,15.4
2022-12-26T09:18:56.054Z,17.2
2022-12-26T09:21:45.581Z,16.2
2022-12-26T09:25:34.783Z,15.6
2022-12-26T09:28:22.184Z,17.1
2022-12-26T09:31:09.577Z,16.8
2022-12-26T09:33:59.111Z,15.8
2022-12-26T09:36:48.016Z,16
2022-12-26T09:39:35.559Z,17.7
2022-12-26T09:42:22.970Z,17
2022-12-26T09:45:19.543Z,16
2022-12-26T09:48:17.778Z,17.6
2022-12-26T09:51:12.852Z,17
2022-12-26T09:54:00.250Z,16.1
2022-12-26T09:57:02.167Z,17
2022-12-26T09:59:54.540Z,18.1
2022-12-26T10:02:44.426Z,16.8
2022-12-26T10:05:40.282Z,15.8
2022-12-26T10:08:49.925Z,17.6
2022-12-26T10:12:25.310Z,16.9
2022-12-26T10:15:23.403Z,16.4
2022-12-26T10:18:21.043Z,17.9
2022-12-26T10:21:21.332Z,17
2022-12-26T10:24:22.871Z,17.3
2022-12-26T10:27:14.950Z,18.2
2022-12-26T10:30:04.231Z,16.8
2022-12-26T10:33:00.332Z,16
2022-12-26T10:35:55.124Z,17.7
2022-12-26T10:38:43.889Z,16.8
2022-12-26T10:41:35.584Z,16.1
2022-12-26T10:44:29.987Z,18
2022-12-26T10:47:17.316Z,17.3
2022-12-26T10:50:10.226Z,16
2022-12-26T10:53:01.977Z,17
2022-12-26T10:55:52.487Z,17.8
2022-12-26T10:58:41.755Z,16.7
2022-12-26T11:01:31.524Z,16.1
2022-12-26T11:04:44.632Z,17.9
2022-12-26T11:07:48.470Z,17.2
2022-12-26T11:10:39.757Z,16
2022-12-26T11:13:32.563Z,16.8
2022-12-26T11:16:24.307Z,17.9
2022-12-26T11:19:14.582Z,16.9
2022-12-26T11:22:12.757Z,15.7
2022-12-26T11:25:08.918Z,16.8
2022-12-26T11:28:02.729Z,17.6
2022-12-26T11:31:06.037Z,16.3
2022-12-26T11:34:09.627Z,16.1
2022-12-26T11:37:17.028Z,17.4
2022-12-26T11:40:10.765Z,17
2022-12-26T11:43:02.920Z,15.9
2022-12-26T11:45:58.834Z,16.7
2022-12-26T11:48:46.273Z,17.6
2022-12-26T11:51:36.168Z,16.7
2022-12-26T11:54:32.480Z,15.9
2022-12-26T11:57:21.926Z,17
2022-12-26T12:00:14.208Z,17.5
2022-12-26T12:03:06.731Z,16.2
2022-12-26T12:05:58.322Z,16.1
2022-12-26T12:08:53.496Z,17.6
2022-12-26T12:11:48.865Z,17.3
2022-12-26T12:14:50.899Z,15.9
2022-12-26T12:17:54.515Z,17.2
2022-12-26T12:20:51.978Z,17.5
2022-12-26T12:23:51.773Z,15.9
2022-12-26T12:27:04.589Z,16.3
2022-12-26T12:29:59.292Z,17.8
2022-12-26T12:33:08.276Z,16.5
2022-12-26T12:36:09.187Z,15.8
2022-12-26T12:39:02.320Z,16.9
2022-12-26T12:41:57.461Z,17.3
2022-12-26T12:45:06.361Z,16
2022-12-26T12:48:11.556Z,16.4
2022-12-26T12:51:17.597Z,17.4
2022-12-26T12:54:13.469Z,16.2
2022-12-26T12:57:42.028Z,16.8
2022-12-26T13:00:34.934Z,17.8
2022-12-26T13:03:34.937Z,16.8
2022-12-26T13:06:27.276Z,15.6
2022-12-26T13:09:20.172Z,16.8
2022-12-26T13:12:11.496Z,17.9
2022-12-26T13:15:04.250Z,16.7
2022-12-26T13:18:00.789Z,15.6
2022-12-26T13:20:53.174Z,17.3
2022-12-26T13:23:44.826Z,17.3
2022-12-26T13:27:07.268Z,15.9
2022-12-26T13:30:01.365Z,15.5
2022-12-26T13:32:57.243Z,17.4
2022-12-26T13:35:45.073Z,17
2022-12-26T13:38:38.660Z,15.6
2022-12-26T13:42:01.564Z,16.6
2022-12-26T13:45:36.495Z,17.8
2022-12-26T13:48:36.244Z,16.4
2022-12-26T13:51:43.719Z,15.2
2022-12-26T13:54:37.010Z,16.8
2022-12-26T13:58:05.659Z,17
2022-12-26T14:01:07.754Z,15.8
2022-12-26T14:04:14.635Z,15.6
2022-12-26T14:07:19.470Z,17
2022-12-26T14:10:14.576Z,16
2022-12-26T14:13:06.909Z,15.4
2022-12-26T14:16:18.316Z,17
2022-12-26T14:19:13.445Z,17
2022-12-26T14:22:14.243Z,15.6
2022-12-26T14:25:10.029Z,15.3
2022-12-26T14:28:08.076Z,16.8
2022-12-26T14:31:06.368Z,16.6
2022-12-26T14:34:10.745Z,15.1
2022-12-26T14:37:12.356Z,16.1
2022-12-26T14:40:07.435Z,16.7
2022-12-26T14:43:10.765Z,15.4
2022-12-26T14:46:16.885Z,15.6
2022-12-26T14:49:41.895Z,17
2022-12-26T14:52:30.442Z,15.5
2022-12-26T14:55:25.485Z,15.2
2022-12-26T14:58:34.069Z,16.9
2022-12-26T15:01:27.544Z,16.3
2022-12-26T15:04:48.747Z,15
2022-12-26T15:07:48.173Z,15.8
2022-12-26T15:10:53.767Z,16.4
2022-12-26T15:14:07.580Z,15.2
2022-12-26T15:17:21.421Z,15.6
2022-12-26T15:20:18.690Z,17.2
2022-12-26T15:23:29.362Z,16
2022-12-26T15:26:37.262Z,14.6
2022-12-26T15:29:43.288Z,16.2
2022-12-26T15:32:48.502Z,16.9
2022-12-26T15:35:46.192Z,15.5
2022-12-26T15:38:39.114Z,14.9
2022-12-26T15:41:34.282Z,16.8
2022-12-26T15:44:30.765Z,16.3
2022-12-26T15:47:27.142Z,15
2022-12-26T15:50:22.298Z,15.3
2022-12-26T15:53:13.897Z,16.9
2022-12-26T15:56:11.691Z,16
2022-12-26T15:59:29.681Z,14.6
2022-12-26T16:02:33.496Z,15.7
2022-12-26T16:05:31.292Z,17.1
2022-12-26T16:08:37.753Z,15.5
2022-12-26T16:11:54.009Z,14.7
2022-12-26T16:14:45.065Z,16.9
2022-12-26T16:17:33.569Z,16.4
2022-12-26T16:20:21.772Z,14.9
2022-12-26T16:25:22.376Z,16.7
2022-12-26T16:28:11.521Z,16.1
2022-12-26T16:30:59.524Z,14.9
2022-12-26T16:33:48.587Z,15.5
2022-12-26T16:36:38.221Z,16.7
2022-12-26T16:39:26.599Z,15.7
2022-12-26T16:42:14.056Z,14.5
2022-12-26T16:45:15.739Z,15.9
2022-12-26T16:48:05.385Z,16.5
2022-12-26T16:50:54.329Z,15.5
2022-12-26T16:53:44.319Z,15
2022-12-26T16:56:32.021Z,16.9
2022-12-26T16:59:19.950Z,16.1
2022-12-26T17:02:10.563Z,14.8
2022-12-26T17:05:03.269Z,16.7
2022-12-26T17:08:00.998Z,16.1
2022-12-26T17:10:49.685Z,14.7
2022-12-26T17:13:37.673Z,15.5
2022-12-26T17:16:26.114Z,16.6
2022-12-26T17:19:15.724Z,15.6
2022-12-26T17:22:04.881Z,15
2022-12-26T17:25:15.363Z,16.8
2022-12-26T17:28:12.482Z,15.9
2022-12-26T17:31:13.041Z,14.7
2022-12-26T17:34:08.764Z,15.9
2022-12-26T17:37:20.195Z,16.6
2022-12-26T17:40:10.243Z,15.1
2022-12-26T17:43:07.759Z,14.4
2022-12-26T17:46:07.098Z,16.2
2022-12-26T17:48:59.745Z,16.2
2022-12-26T17:51:54.548Z,14.9
2022-12-26T17:54:45.589Z,15
2022-12-26T17:57:34.341Z,16.5
2022-12-26T18:00:21.758Z,15.7
2022-12-26T18:03:11.588Z,14.5
2022-12-26T18:05:59.737Z,15
2022-12-26T18:08:47.315Z,16.4
2022-12-26T18:11:34.662Z,15.3
2022-12-26T18:14:22.076Z,14.3
2022-12-26T18:17:10.021Z,15.8
2022-12-26T18:20:03.127Z,16.4
2022-12-26T18:22:52.735Z,14.9
2022-12-26T18:25:41.706Z,15.2
2022-12-26T18:28:29.745Z,16.6
2022-12-26T18:31:18.249Z,16
2022-12-26T18:34:06.002Z,14.3
2022-12-26T18:36:53.383Z,15.2
2022-12-26T18:39:41.237Z,16.6
2022-12-26T18:42:28.693Z,15.3
2022-12-26T18:45:16.539Z,14.4
2022-12-26T18:48:03.987Z,15.6
2022-12-26T18:50:53.413Z,16
2022-12-26T18:53:40.867Z,14.6
2022-12-26T18:56:28.202Z,15.5
2022-12-26T18:59:15.565Z,16.6
2022-12-26T19:02:02.907Z,15.6
2022-12-26T19:04:50.807Z,14.9
2022-12-26T19:07:38.268Z,16.5
2022-12-26T19:10:25.706Z,16
2022-12-26T19:13:15.703Z,14.6
2022-12-26T19:16:03.130Z,15.2
2022-12-26T19:18:51.209Z,16.1
2022-12-26T19:21:38.595Z,14.7
2022-12-26T19:24:27.275Z,15.6
2022-12-26T19:27:14.565Z,15.9
2022-12-26T19:30:02.304Z,15
2022-12-26T19:32:51.934Z,14.4
2022-12-26T19:35:39.284Z,15.9
2022-12-26T19:38:26.845Z,15.7
2022-12-26T19:41:14.259Z,14.6
2022-12-26T19:44:01.994Z,15.6
2022-12-26T19:46:49.557Z,16.6
2022-12-26T19:49:59.738Z,15.1
2022-12-26T19:52:48.546Z,13.9
2022-12-26T19:55:35.941Z,15.7
2022-12-26T19:58:23.304Z,15.8
2022-12-26T20:01:14.408Z,14.6
2022-12-26T20:04:04.242Z,14.6
2022-12-26T20:06:51.834Z,16.6
2022-12-26T20:09:39.194Z,15.1
2022-12-26T20:12:26.780Z,13.9
2022-12-26T20:15:14.120Z,14.9
2022-12-26T20:18:01.654Z,16.5
2022-12-26T20:20:49.037Z,15.4
2022-12-26T20:23:38.210Z,14.1
2022-12-26T20:26:26.272Z,14.8
2022-12-26T20:29:14.539Z,16.2
2022-12-26T20:32:02.615Z,15.8
2022-12-26T20:34:50.352Z,14.4
2022-12-26T20:37:37.725Z,14.7
2022-12-26T20:40:25.632Z,16.2
2022-12-26T20:43:13.202Z,15.7
2022-12-26T20:46:05.668Z,14.2
2022-12-26T20:48:58.398Z,14.9
2022-12-26T20:51:46.816Z,15.9
2022-12-26T20:54:34.174Z,14.6
2022-12-26T20:57:21.609Z,14.4
2022-12-26T21:00:08.950Z,16
2022-12-26T21:02:57.988Z,14.8
2022-12-26T21:05:45.580Z,13.8
2022-12-26T21:08:32.935Z,15.4
2022-12-26T21:11:21.640Z,16
2022-12-26T21:14:11.535Z,14.7
2022-12-26T21:17:01.167Z,13.7
2022-12-26T21:19:48.746Z,15.2
2022-12-26T21:22:36.032Z,15.2
2022-12-26T21:25:23.388Z,13.9
2022-12-26T21:28:10.733Z,14.2
2022-12-26T21:30:58.059Z,15.7
2022-12-26T21:33:45.867Z,14.7
2022-12-26T21:36:33.371Z,13.5
2022-12-26T21:39:20.845Z,14.7
2022-12-26T21:42:08.139Z,15.4
2022-12-26T21:44:55.901Z,14.1
2022-12-26T21:47:43.782Z,13.7
2022-12-26T21:50:31.717Z,15.5
2022-12-26T21:53:19.255Z,14.9
2022-12-26T21:56:06.845Z,13.5
2022-12-26T21:58:56.301Z,14.6
2022-12-26T22:02:15.572Z,14.8
2022-12-26T22:07:03.408Z,13.3
2022-12-26T22:09:50.729Z,15.3
2022-12-26T22:12:38.145Z,14.4
2022-12-26T22:15:57.253Z,13.4
2022-12-26T22:18:52.279Z,15.1
2022-12-26T22:21:40.757Z,14.7
2022-12-26T22:24:28.138Z,13.5
2022-12-26T22:27:15.475Z,13.1
2022-12-26T22:30:03.037Z,14.9
2022-12-26T22:32:52.338Z,14.6
2022-12-26T22:35:39.708Z,13.4
2022-12-26T22:38:27.063Z,13.2
2022-12-26T22:41:15.660Z,14.4
2022-12-26T22:44:03.308Z,13.7
2022-12-26T22:46:50.918Z,12.3
2022-12-26T22:49:38.235Z,13.8
2022-12-26T22:52:25.565Z,14.1
2022-12-26T22:55:12.867Z,12.9
2022-12-26T22:58:02.360Z,13
2022-12-26T23:00:49.989Z,14.2
2022-12-26T23:03:38.346Z,13.5
2022-12-26T23:06:26.003Z,12.5
2022-12-26T23:09:15.664Z,11.6
2022-12-26T23:12:03.643Z,12.9
2022-12-26T23:15:23.913Z,12.8
2022-12-26T23:18:13.258Z,11.9
2022-12-26T23:21:44.279Z,10.9
2022-12-26T23:24:34.963Z,12.5
2022-12-26T23:27:22.305Z,12
2022-12-26T23:30:41.617Z,11.1
2022-12-26T23:33:28.987Z,10.5
2022-12-26T23:36:17.139Z,11
2022-12-26T23:39:04.578Z,11.3
2022-12-26T23:41:51.927Z,10.7
2022-12-26T23:44:39.448Z,10.1
2022-12-26T23:47:26.783Z,10.7
2022-12-26T23:50:14.584Z,11.9
2022-12-26T23:53:02.448Z,11.2
2022-12-26T23:55:50.271Z,10.3
2022-12-26T23:58:37.540Z,10.6
